GHK weather

CLOSED Gush Katif Airport
Khan Yunis, Khan Yunis Governorate, Palestinian Territory

Public forecast

Using degrees Celsius for public forecast. Weather courtesy of forecast.io.

METAR (pilot weather report)

Report is more than 6 hours old.

Closest report is El Arish International Airport, 29.4 nm (54.5 km) SW. Retrieved 2019/07/20 11:00 UTC (3 days ago):

HEAR 201100Z METAR HEGN 201100Z 33020KT CAVOK 38/17 Q1007 NOSIG

TAF (pilot weather forecast)

Forecast is more than 12 hours old.

Closest forecast is El Gora Airport, 19.8 nm (36.7 km) SSW. Retrieved 2019/06/09 06:00 UTC (1 month ago):

TAF HEGR 090500Z 0906/1012 23008KT 9999 SCT025